Time;durP1;ratioP1;P1;durP2;ratioP2;P2;SDS_P1;SDS_P2;PMS_P1;PMS_P2;Temp;Humidity;BMP_temperature;BMP_pressure;BME280_temperature;BME280_humidity;BME280_pressure;Samples;Min_cycle;Max_cycle;Signal;HPM_P1;HPM_P2
2023/09/17 00:01:53;;;;;;;6.30;4.43;;;17.10;99.90;;;;;;4195007;28;20032;-62
2023/09/17 00:03:54;;;;;;;8.60;4.55;;;17.10;99.90;;;;;;4196245;28;20052;-62
2023/09/17 00:05:55;;;;;;;6.07;4.72;;;17.00;99.90;;;;;;4194162;28;20574;-62
2023/09/17 00:07:56;;;;;;;7.63;4.72;;;17.00;99.90;;;;;;4195917;28;20084;-62
2023/09/17 00:09:57;;;;;;;4.80;4.30;;;16.90;99.90;;;;;;4194552;28;20549;-62
2023/09/17 00:11:59;;;;;;;6.45;4.75;;;16.90;99.90;;;;;;4195477;28;20477;-62
2023/09/17 00:14:00;;;;;;;6.85;4.60;;;16.90;99.90;;;;;;4194343;28;20114;-62
2023/09/17 00:16:01;;;;;;;5.18;4.68;;;16.80;99.90;;;;;;4195412;28;20048;-62
2023/09/17 00:18:03;;;;;;;6.38;4.60;;;16.80;99.90;;;;;;4194872;28;20464;-62
2023/09/17 00:20:10;;;;;;;5.07;4.00;;;16.80;99.90;;;;;;4195551;28;20078;-63
2023/09/17 00:22:14;;;;;;;6.63;4.85;;;16.80;99.90;;;;;;4193617;28;20041;-61
2023/09/17 00:24:15;;;;;;;6.97;4.70;;;16.70;99.90;;;;;;4195121;28;20074;-62
2023/09/17 00:26:16;;;;;;;6.57;4.82;;;16.70;99.90;;;;;;4194852;28;20403;-62
2023/09/17 00:28:17;;;;;;;5.97;4.82;;;16.70;99.90;;;;;;4195070;28;20431;-62
2023/09/17 00:30:19;;;;;;;6.65;5.20;;;16.70;99.90;;;;;;4195244;28;20044;-62
2023/09/17 00:32:20;;;;;;;6.75;5.35;;;16.70;99.90;;;;;;4194768;28;20082;-63
2023/09/17 00:34:21;;;;;;;6.97;4.63;;;16.70;99.90;;;;;;4195765;28;20032;-62
2023/09/17 00:36:23;;;;;;;7.20;4.45;;;16.70;99.90;;;;;;4194159;28;20154;-61
2023/09/17 00:38:24;;;;;;;5.65;4.10;;;16.70;99.90;;;;;;4194943;28;20381;-61
2023/09/17 00:40:29;;;;;;;8.63;4.60;;;16.70;99.90;;;;;;4194546;28;20032;-61
2023/09/17 00:42:30;;;;;;;7.18;4.82;;;16.80;99.90;;;;;;4195239;28;20110;-62
2023/09/17 00:44:31;;;;;;;6.68;5.03;;;16.80;99.90;;;;;;4193621;28;20036;-61
2023/09/17 00:46:32;;;;;;;4.82;4.32;;;16.80;99.90;;;;;;4195435;28;20032;-62
2023/09/17 00:48:34;;;;;;;8.93;5.00;;;16.90;99.90;;;;;;4193339;28;20045;-61
2023/09/17 00:50:35;;;;;;;5.65;4.13;;;16.90;99.90;;;;;;4195339;28;20380;-62
2023/09/17 00:52:38;;;;;;;8.80;4.65;;;16.90;99.90;;;;;;4193714;28;20098;-61
2023/09/17 00:54:39;;;;;;;6.15;4.03;;;16.90;99.90;;;;;;4194922;28;20040;-61
2023/09/17 00:56:41;;;;;;;7.35;4.95;;;16.90;99.90;;;;;;4194304;28;20021;-61
2023/09/17 00:58:42;;;;;;;5.93;4.63;;;16.90;99.90;;;;;;4194883;28;20013;-61
2023/09/17 01:00:44;;;;;;;5.97;4.55;;;16.90;99.90;;;;;;4193630;28;20090;-61
2023/09/17 01:02:45;;;;;;;5.45;4.53;;;16.80;99.90;;;;;;4194444;28;20129;-61
2023/09/17 01:04:50;;;;;;;6.10;4.38;;;16.80;99.90;;;;;;4194578;28;20104;-61
2023/09/17 01:06:55;;;;;;;5.10;4.55;;;16.80;99.90;;;;;;4193697;28;20498;-60
2023/09/17 01:08:57;;;;;;;6.45;4.78;;;16.80;99.90;;;;;;4194145;28;20037;-61
2023/09/17 01:10:58;;;;;;;6.00;4.53;;;16.80;99.90;;;;;;4194162;28;20346;-61
2023/09/17 01:13:01;;;;;;;5.35;4.70;;;16.80;99.90;;;;;;4195293;28;20032;-61
2023/09/17 01:15:06;;;;;;;6.05;4.63;;;16.80;99.90;;;;;;4193185;28;20094;-62
2023/09/17 01:17:09;;;;;;;6.25;5.18;;;16.80;99.90;;;;;;4194632;28;20048;-61
2023/09/17 01:19:17;;;;;;;5.35;4.72;;;16.80;99.90;;;;;;4192475;28;20028;-61
2023/09/17 01:21:26;;;;;;;6.05;4.90;;;16.80;99.90;;;;;;4194704;28;20094;-61
2023/09/17 01:23:40;;;;;;;5.43;4.75;;;16.80;99.90;;;;;;4193593;28;20078;-60
2023/09/17 01:26:06;;;;;;;5.32;4.70;;;16.80;99.90;;;;;;4194653;28;20106;-61
2023/09/17 01:28:11;;;;;;;5.68;4.43;;;16.90;99.90;;;;;;4192470;28;20129;-61
2023/09/17 01:30:15;;;;;;;8.45;4.72;;;16.80;99.90;;;;;;4194180;28;20044;-61
2023/09/17 01:32:17;;;;;;;8.25;5.10;;;16.70;99.90;;;;;;4193073;28;20052;-61
2023/09/17 01:34:18;;;;;;;6.78;5.13;;;16.70;99.90;;;;;;4194409;28;20439;-60
2023/09/17 01:36:24;;;;;;;7.28;5.40;;;16.60;99.90;;;;;;4193762;28;20012;-61
2023/09/17 01:38:32;;;;;;;9.55;5.40;;;16.60;99.90;;;;;;4194649;28;20020;-61
2023/09/17 01:40:33;;;;;;;7.53;5.03;;;16.50;99.90;;;;;;4193443;28;20415;-60
2023/09/17 01:42:36;;;;;;;6.82;5.57;;;16.50;99.90;;;;;;4194186;28;20028;-60
2023/09/17 01:44:38;;;;;;;6.60;5.05;;;16.50;99.90;;;;;;4192657;28;20480;-60
2023/09/17 01:46:41;;;;;;;5.53;4.95;;;16.40;99.90;;;;;;4193982;28;20062;-61
2023/09/17 01:48:42;;;;;;;5.55;4.85;;;16.40;99.90;;;;;;4192503;28;20118;-60
2023/09/17 01:50:45;;;;;;;6.50;4.90;;;16.30;99.90;;;;;;4194326;28;20069;-60
2023/09/17 01:52:46;;;;;;;8.48;6.03;;;16.30;99.90;;;;;;4193525;28;20526;-61
2023/09/17 01:54:48;;;;;;;8.75;5.45;;;16.30;99.90;;;;;;4193258;28;20040;-60
2023/09/17 01:56:50;;;;;;;6.55;5.43;;;16.30;99.90;;;;;;4193794;28;20025;-60
2023/09/17 01:58:51;;;;;;;5.53;4.85;;;16.30;99.90;;;;;;4193718;28;20093;-61
2023/09/17 02:00:52;;;;;;;7.28;5.47;;;16.40;99.90;;;;;;4193989;28;20533;-60
2023/09/17 02:02:53;;;;;;;8.48;5.35;;;16.40;99.90;;;;;;4192744;28;20030;-61
2023/09/17 02:04:55;;;;;;;6.80;4.80;;;16.30;99.90;;;;;;4194326;28;20090;-60
2023/09/17 02:06:56;;;;;;;7.75;5.72;;;16.30;99.90;;;;;;4192545;28;20101;-58
2023/09/17 02:08:57;;;;;;;7.05;5.30;;;16.40;99.90;;;;;;4194361;28;20119;-60
2023/09/17 02:10:58;;;;;;;6.63;5.22;;;16.30;99.90;;;;;;4193219;28;20029;-61
2023/09/17 02:12:59;;;;;;;6.50;5.00;;;16.30;99.90;;;;;;4194470;28;20029;-61
2023/09/17 02:15:00;;;;;;;5.68;4.60;;;16.30;99.90;;;;;;4192489;28;20032;-60
2023/09/17 02:17:03;;;;;;;6.43;5.50;;;16.30;99.90;;;;;;4193494;28;20140;-61
2023/09/17 02:19:05;;;;;;;8.68;5.53;;;16.30;99.90;;;;;;4192623;28;20042;-60
2023/09/17 02:21:06;;;;;;;6.97;5.57;;;16.30;99.90;;;;;;4194201;28;20028;-60
2023/09/17 02:23:09;;;;;;;7.07;5.63;;;16.20;99.90;;;;;;4193294;28;20032;-60
2023/09/17 02:25:10;;;;;;;6.00;5.07;;;16.20;99.90;;;;;;4193187;28;20435;-61
2023/09/17 02:27:13;;;;;;;7.03;5.18;;;16.20;99.90;;;;;;4192716;28;20090;-60
2023/09/17 02:29:14;;;;;;;10.25;5.15;;;16.20;99.90;;;;;;4193644;28;20032;-60
2023/09/17 02:31:16;;;;;;;8.88;5.88;;;16.20;99.90;;;;;;4193765;28;20082;-61
2023/09/17 02:33:17;;;;;;;7.97;4.82;;;16.20;99.90;;;;;;4193015;28;20558;-62
2023/09/17 02:35:18;;;;;;;6.15;4.97;;;16.10;99.90;;;;;;4194597;28;20424;-62
2023/09/17 02:37:20;;;;;;;6.75;5.10;;;16.10;99.90;;;;;;4192268;28;20531;-63
2023/09/17 02:39:21;;;;;;;6.18;5.35;;;16.20;99.90;;;;;;4193412;28;20094;-61
2023/09/17 02:41:23;;;;;;;6.18;4.90;;;16.10;99.90;;;;;;4192100;28;20052;-60
2023/09/17 02:43:24;;;;;;;6.30;5.30;;;16.20;99.90;;;;;;4193250;28;20041;-61
2023/09/17 02:45:25;;;;;;;6.75;5.57;;;16.20;99.90;;;;;;4192920;28;20040;-62
2023/09/17 02:47:26;;;;;;;8.57;5.80;;;16.20;99.90;;;;;;4192991;28;20044;-60
2023/09/17 02:49:27;;;;;;;6.88;5.38;;;16.30;99.90;;;;;;4192890;28;20028;-60
2023/09/17 02:51:28;;;;;;;6.28;5.10;;;16.30;99.90;;;;;;4194233;28;20531;-62
2023/09/17 02:53:29;;;;;;;9.05;5.63;;;16.30;99.90;;;;;;4191908;28;20094;-65
2023/09/17 02:55:34;;;;;;;6.53;5.07;;;16.40;99.90;;;;;;4193166;28;20484;-61
2023/09/17 02:57:35;;;;;;;6.15;5.10;;;16.40;99.90;;;;;;4192519;28;20033;-62
2023/09/17 02:59:36;;;;;;;8.88;5.60;;;16.40;99.90;;;;;;4193588;28;20472;-61
2023/09/17 03:01:38;;;;;;;6.93;5.65;;;16.50;99.90;;;;;;4192783;28;20541;-61
2023/09/17 03:03:40;;;;;;;6.28;5.22;;;16.50;99.90;;;;;;4192235;28;20102;-62
2023/09/17 03:05:45;;;;;;;6.28;5.50;;;16.50;99.90;;;;;;4193616;28;20450;-62
2023/09/17 03:07:47;;;;;;;6.45;5.20;;;16.40;99.90;;;;;;4192105;28;20382;-62
2023/09/17 03:09:48;;;;;;;7.25;5.10;;;16.40;99.90;;;;;;4193642;28;20092;-62
2023/09/17 03:11:51;;;;;;;6.43;5.32;;;16.40;99.90;;;;;;4192252;28;20090;-62
2023/09/17 03:13:55;;;;;;;8.43;5.88;;;16.40;99.90;;;;;;4193178;28;20037;-62
2023/09/17 03:15:57;;;;;;;9.27;5.47;;;16.40;99.90;;;;;;4195737;28;20037;-62
2023/09/17 03:17:59;;;;;;;7.15;5.13;;;16.40;99.90;;;;;;4196159;28;20546;-62
2023/09/17 03:20:05;;;;;;;7.78;5.65;;;16.40;99.90;;;;;;4195051;28;20040;-62
2023/09/17 03:22:06;;;;;;;6.10;5.22;;;16.40;99.90;;;;;;4196174;28;20476;-61
2023/09/17 03:24:08;;;;;;;10.02;5.20;;;16.40;99.90;;;;;;4195254;28;20029;-63
2023/09/17 03:26:09;;;;;;;7.90;5.10;;;16.40;99.90;;;;;;4196938;28;20473;-63
2023/09/17 03:28:11;;;;;;;7.32;5.65;;;16.40;99.90;;;;;;4195514;28;20029;-62
2023/09/17 03:30:13;;;;;;;5.82;5.22;;;16.40;99.90;;;;;;4195825;28;21014;-63
2023/09/17 03:32:14;;;;;;;7.07;5.05;;;16.40;99.90;;;;;;4194801;28;20103;-63
2023/09/17 03:34:15;;;;;;;7.13;5.03;;;16.40;99.90;;;;;;4196056;28;20032;-61
2023/09/17 03:36:16;;;;;;;6.72;5.90;;;16.40;99.90;;;;;;4196358;28;20096;-61
2023/09/17 03:38:18;;;;;;;7.57;4.82;;;16.40;99.90;;;;;;4195071;28;20392;-63
2023/09/17 03:40:19;;;;;;;6.28;5.40;;;16.40;99.90;;;;;;4196249;28;20435;-61
2023/09/17 03:42:20;;;;;;;5.93;5.13;;;16.30;99.90;;;;;;4195468;28;20500;-62
2023/09/17 03:44:21;;;;;;;9.32;5.38;;;16.30;99.90;;;;;;4196564;28;20067;-61
2023/09/17 03:46:22;;;;;;;8.10;5.50;;;16.30;99.90;;;;;;4195481;28;20020;-62
2023/09/17 03:48:24;;;;;;;6.13;5.15;;;16.30;99.90;;;;;;4196254;28;20044;-62
2023/09/17 03:50:27;;;;;;;8.20;5.40;;;16.30;99.90;;;;;;4195291;28;20028;-63
2023/09/17 03:52:29;;;;;;;7.00;4.93;;;16.20;99.90;;;;;;4196000;28;20052;-63
2023/09/17 03:54:30;;;;;;;7.38;5.75;;;16.20;99.90;;;;;;4194489;28;20090;-62
2023/09/17 03:56:32;;;;;;;6.90;5.65;;;16.20;99.90;;;;;;4196343;28;20090;-62
2023/09/17 03:58:33;;;;;;;7.65;6.00;;;16.10;99.90;;;;;;4195044;28;20021;-61
2023/09/17 04:00:34;;;;;;;7.15;5.53;;;16.10;99.90;;;;;;4195470;28;20037;-62
2023/09/17 04:02:38;;;;;;;7.32;5.38;;;16.10;99.90;;;;;;4194974;28;20478;-61
2023/09/17 04:04:39;;;;;;;8.98;5.65;;;16.10;99.90;;;;;;4195336;28;20122;-62
2023/09/17 04:06:40;;;;;;;8.77;5.80;;;16.00;99.90;;;;;;4195256;28;20033;-62
2023/09/17 04:08:41;;;;;;;8.18;5.57;;;16.10;99.90;;;;;;4194481;28;20106;-62
2023/09/17 04:10:43;;;;;;;7.80;5.15;;;16.00;99.90;;;;;;4195095;28;20029;-61
2023/09/17 04:12:45;;;;;;;8.32;5.85;;;16.00;99.90;;;;;;4194456;28;20090;-62
2023/09/17 04:14:46;;;;;;;12.02;6.00;;;16.00;99.90;;;;;;4195345;28;20558;-62
2023/09/17 04:16:47;;;;;;;6.45;5.72;;;16.00;99.90;;;;;;4193986;28;20075;-63
2023/09/17 04:18:49;;;;;;;7.32;5.93;;;16.00;99.90;;;;;;4195748;28;20374;-62
2023/09/17 04:20:51;;;;;;;8.40;5.80;;;16.00;99.90;;;;;;4194722;28;20025;-60
2023/09/17 04:22:52;;;;;;;6.45;5.15;;;16.00;99.90;;;;;;4194983;28;20036;-62
2023/09/17 04:24:54;;;;;;;7.85;5.65;;;16.00;99.90;;;;;;4194355;28;20105;-62
2023/09/17 04:26:56;;;;;;;8.77;5.55;;;16.00;99.90;;;;;;4195472;28;20122;-64
2023/09/17 04:28:57;;;;;;;8.02;5.68;;;16.00;99.90;;;;;;4193879;28;20094;-63
2023/09/17 04:30:58;;;;;;;9.77;5.82;;;16.00;99.90;;;;;;4195020;28;20036;-63
2023/09/17 04:33:01;;;;;;;7.68;5.32;;;16.00;99.90;;;;;;4194305;28;20074;-63
2023/09/17 04:35:07;;;;;;;7.07;5.78;;;16.00;99.90;;;;;;4195214;28;20044;-63
2023/09/17 04:37:10;;;;;;;8.45;5.63;;;16.00;99.90;;;;;;4195191;28;20102;-62
2023/09/17 04:39:14;;;;;;;7.32;5.75;;;16.00;99.90;;;;;;4194845;28;20089;-61
2023/09/17 04:41:15;;;;;;;9.13;5.65;;;16.00;99.90;;;;;;4193968;28;20044;-61
2023/09/17 04:43:16;;;;;;;7.43;6.45;;;16.00;99.90;;;;;;4195012;28;20078;-61
2023/09/17 04:45:39;;;;;;;7.00;5.45;;;16.00;99.90;;;;;;4194538;28;20102;-61
2023/09/17 04:47:40;;;;;;;10.23;5.90;;;16.00;99.90;;;;;;4194591;28;20032;-61
2023/09/17 04:49:42;;;;;;;6.78;5.45;;;16.00;99.90;;;;;;4195135;28;20032;-61
2023/09/17 04:51:43;;;;;;;6.53;5.22;;;16.00;99.90;;;;;;4193526;28;20044;-60
2023/09/17 04:53:44;;;;;;;8.63;5.80;;;16.00;99.90;;;;;;4194420;28;20037;-60
2023/09/17 04:55:45;;;;;;;8.15;6.07;;;16.10;99.90;;;;;;4194440;28;20538;-61
2023/09/17 04:57:46;;;;;;;9.48;5.60;;;16.20;99.90;;;;;;4195410;28;20431;-62
2023/09/17 04:59:49;;;;;;;12.32;5.85;;;16.30;99.90;;;;;;4194310;28;20040;-62
2023/09/17 05:01:50;;;;;;;7.50;5.80;;;16.30;99.90;;;;;;4194853;28;20107;-61
2023/09/17 05:03:52;;;;;;;8.02;5.30;;;16.30;99.90;;;;;;4193035;28;20075;-60
2023/09/17 05:05:53;;;;;;;8.52;5.53;;;16.30;99.90;;;;;;4194577;28;20048;-60
2023/09/17 05:07:54;;;;;;;7.82;5.45;;;16.30;99.90;;;;;;4194491;28;20461;-60
2023/09/17 05:09:55;;;;;;;8.55;5.57;;;16.30;99.90;;;;;;4195309;28;20029;-61
2023/09/17 05:11:56;;;;;;;6.60;5.25;;;16.30;99.90;;;;;;4193616;28;20094;-60
2023/09/17 05:13:58;;;;;;;6.70;5.15;;;16.40;99.90;;;;;;4195025;28;20374;-61
2023/09/17 05:15:59;;;;;;;6.55;5.57;;;16.50;99.90;;;;;;4194572;28;20110;-62
2023/09/17 05:18:06;;;;;;;6.22;5.40;;;16.50;99.90;;;;;;4193663;28;20138;-61
2023/09/17 05:20:07;;;;;;;9.07;6.40;;;16.50;99.90;;;;;;4193781;28;20093;-60
2023/09/17 05:22:08;;;;;;;6.53;5.53;;;16.60;99.90;;;;;;4193299;28;20048;-60
2023/09/17 05:24:10;;;;;;;7.68;5.82;;;16.50;99.90;;;;;;4194831;28;20427;-61
2023/09/17 05:26:11;;;;;;;11.10;5.38;;;16.60;99.90;;;;;;4193559;28;20024;-60
2023/09/17 05:28:12;;;;;;;7.60;5.25;;;16.60;99.90;;;;;;4193976;28;20469;-60
2023/09/17 05:30:13;;;;;;;7.32;4.95;;;16.60;99.90;;;;;;4193366;28;20082;-58
2023/09/17 05:32:15;;;;;;;8.25;5.30;;;16.60;99.90;;;;;;4193922;28;20070;-60
2023/09/17 05:34:19;;;;;;;6.60;5.25;;;16.70;99.90;;;;;;4193274;28;20476;-60
2023/09/17 05:36:21;;;;;;;7.20;5.65;;;16.70;99.90;;;;;;4193551;28;20057;-61
2023/09/17 05:38:23;;;;;;;11.63;5.65;;;16.70;99.90;;;;;;4192905;28;20021;-60
2023/09/17 05:40:25;;;;;;;9.45;5.63;;;16.70;99.90;;;;;;4193877;28;20268;-61
2023/09/17 05:42:26;;;;;;;9.75;6.05;;;16.80;99.90;;;;;;4193223;28;20024;-60
2023/09/17 05:44:27;;;;;;;9.52;5.10;;;16.80;99.90;;;;;;4193618;28;20029;-62
2023/09/17 05:46:28;;;;;;;6.00;5.40;;;16.90;99.90;;;;;;4192601;28;20028;-62
2023/09/17 05:48:30;;;;;;;8.57;5.50;;;16.90;99.90;;;;;;4193832;28;20978;-63
2023/09/17 05:50:31;;;;;;;8.43;5.40;;;16.90;99.90;;;;;;4193697;28;20376;-61
2023/09/17 05:52:32;;;;;;;8.32;5.97;;;16.90;99.90;;;;;;4192660;28;20041;-62
2023/09/17 05:54:33;;;;;;;11.57;5.85;;;17.00;99.90;;;;;;4194019;28;20037;-61
2023/09/17 05:56:34;;;;;;;14.07;6.22;;;17.00;99.90;;;;;;4193294;28;20032;-62
2023/09/17 05:58:35;;;;;;;9.60;5.78;;;17.20;99.90;;;;;;4193644;28;20094;-62
2023/09/17 06:00:38;;;;;;;11.55;6.38;;;17.40;99.90;;;;;;4193062;28;20465;-61
2023/09/17 06:02:39;;;;;;;8.43;5.65;;;17.40;99.90;;;;;;4193708;28;20473;-62
2023/09/17 06:04:40;;;;;;;8.25;6.25;;;17.40;99.90;;;;;;4192814;28;20086;-61
2023/09/17 06:06:41;;;;;;;7.13;5.20;;;17.50;99.90;;;;;;4194005;28;20474;-61
2023/09/17 06:08:43;;;;;;;6.45;5.57;;;17.50;99.90;;;;;;4193135;28;20437;-62
2023/09/17 06:10:44;;;;;;;8.48;5.25;;;17.40;99.90;;;;;;4194163;28;20079;-62
2023/09/17 06:12:45;;;;;;;8.63;5.82;;;17.40;99.90;;;;;;4192335;28;20036;-63
2023/09/17 06:14:46;;;;;;;7.07;5.72;;;17.40;99.90;;;;;;4193405;28;20098;-62
2023/09/17 06:16:47;;;;;;;6.22;4.85;;;17.50;99.90;;;;;;4193001;28;20412;-62
2023/09/17 06:18:49;;;;;;;6.65;5.32;;;17.50;99.90;;;;;;4193241;28;20044;-63
2023/09/17 06:20:50;;;;;;;9.00;5.68;;;17.50;99.90;;;;;;4192746;28;20118;-62
2023/09/17 06:22:51;;;;;;;6.80;5.38;;;17.60;99.90;;;;;;4193706;28;20081;-63
2023/09/17 06:24:53;;;;;;;7.60;5.68;;;17.50;99.90;;;;;;4192993;28;20033;-62
2023/09/17 06:26:54;;;;;;;5.97;5.20;;;17.60;99.90;;;;;;4192035;28;20090;-62
2023/09/17 06:28:55;;;;;;;7.03;5.25;;;17.60;99.90;;;;;;4192991;28;20114;-58
2023/09/17 06:30:56;;;;;;;8.75;5.63;;;17.60;99.90;;;;;;4192915;28;20459;-62
2023/09/17 06:32:57;;;;;;;7.55;5.85;;;17.70;99.90;;;;;;4175810;28;20106;-62
2023/09/17 06:34:58;;;;;;;8.82;5.22;;;17.80;99.90;;;;;;4192072;28;20060;-61
2023/09/17 06:37:00;;;;;;;6.60;5.45;;;17.80;99.90;;;;;;4194130;28;20097;-59
2023/09/17 06:39:01;;;;;;;11.07;6.25;;;17.90;99.90;;;;;;4192985;28;20050;-62
2023/09/17 06:41:02;;;;;;;8.98;5.28;;;17.90;99.90;;;;;;4192936;28;20033;-62
2023/09/17 06:43:03;;;;;;;8.75;5.30;;;17.90;99.90;;;;;;4191438;28;20105;-62
2023/09/17 06:45:05;;;;;;;9.02;5.63;;;18.00;99.90;;;;;;4193717;28;20028;-62
2023/09/17 06:47:06;;;;;;;8.80;5.80;;;18.10;99.90;;;;;;4192437;28;20033;-63
2023/09/17 06:49:07;;;;;;;8.90;5.18;;;18.30;99.90;;;;;;4195202;28;20036;-62
2023/09/17 06:51:08;;;;;;;5.90;4.68;;;18.40;99.90;;;;;;4196133;28;20021;-61
2023/09/17 06:53:09;;;;;;;6.90;5.45;;;18.50;99.90;;;;;;4177648;28;20174;-62
2023/09/17 06:55:11;;;;;;;7.63;5.22;;;18.60;99.90;;;;;;4196401;28;20453;-62
2023/09/17 06:57:12;;;;;;;6.40;5.05;;;18.70;99.90;;;;;;4194927;28;20033;-63
2023/09/17 06:59:13;;;;;;;6.68;4.80;;;18.70;99.90;;;;;;4195810;28;20037;-63
2023/09/17 07:01:14;;;;;;;8.35;5.45;;;18.70;99.90;;;;;;4195207;28;20492;-63
2023/09/17 07:03:15;;;;;;;9.13;5.20;;;18.70;99.90;;;;;;4196689;28;20078;-61
2023/09/17 07:05:16;;;;;;;7.68;5.07;;;18.70;99.90;;;;;;4194852;28;20048;-63
2023/09/17 07:07:18;;;;;;;9.48;5.00;;;18.70;99.90;;;;;;4195997;28;20044;-60
2023/09/17 07:09:19;;;;;;;6.95;5.10;;;18.70;99.90;;;;;;4195837;28;20044;-62
2023/09/17 07:11:20;;;;;;;8.20;5.78;;;18.80;99.90;;;;;;4196820;28;20074;-62
2023/09/17 07:13:21;;;;;;;6.68;5.10;;;18.90;99.90;;;;;;4195568;28;20033;-62
2023/09/17 07:15:25;;;;;;;5.93;4.80;;;19.00;99.90;;;;;;4196503;28;20029;-62
2023/09/17 07:17:26;;;;;;;8.50;5.18;;;18.90;99.90;;;;;;4194474;28;20070;-61
2023/09/17 07:19:27;;;;;;;6.35;5.65;;;18.90;99.90;;;;;;4195525;28;20109;-63
2023/09/17 07:21:29;;;;;;;6.68;4.57;;;18.90;99.90;;;;;;4195477;28;20135;-62
2023/09/17 07:23:30;;;;;;;5.95;4.97;;;19.00;99.90;;;;;;4195665;28;20066;-61
2023/09/17 07:25:34;;;;;;;6.55;5.22;;;19.20;99.90;;;;;;4195416;28;20056;-62
2023/09/17 07:27:36;;;;;;;5.32;4.82;;;19.20;99.90;;;;;;4184053;28;20045;-61
2023/09/17 07:29:37;;;;;;;6.28;5.05;;;19.20;99.90;;;;;;4178805;28;20486;-61
2023/09/17 07:31:41;;;;;;;7.57;4.65;;;19.20;99.90;;;;;;4177449;28;20091;-61
2023/09/17 07:33:44;;;;;;;7.97;5.15;;;19.30;99.90;;;;;;4178640;28;20041;-63
2023/09/17 07:35:45;;;;;;;6.40;4.47;;;19.40;99.90;;;;;;4178280;28;20028;-60
2023/09/17 07:37:46;;;;;;;7.28;5.03;;;19.50;99.90;;;;;;4179064;28;20040;-61
2023/09/17 07:39:52;;;;;;;5.35;4.85;;;19.50;99.90;;;;;;4177751;28;20045;-63
2023/09/17 07:41:54;;;;;;;5.50;4.35;;;19.50;99.90;;;;;;4179119;28;20045;-61
2023/09/17 07:43:55;;;;;;;6.53;4.78;;;19.60;99.90;;;;;;4178233;28;20086;-60
2023/09/17 07:45:56;;;;;;;6.13;4.75;;;19.70;99.90;;;;;;4179351;28;20448;-61
2023/09/17 07:47:57;;;;;;;6.00;4.70;;;19.80;99.90;;;;;;4178090;28;20095;-61
2023/09/17 07:49:58;;;;;;;6.03;4.80;;;19.90;99.90;;;;;;4178817;28;20515;-62
2023/09/17 07:52:00;;;;;;;6.07;5.47;;;19.90;99.90;;;;;;4177863;28;20505;-61
2023/09/17 07:54:02;;;;;;;6.43;4.57;;;19.90;99.90;;;;;;4178213;28;20032;-62
2023/09/17 07:56:03;;;;;;;6.47;4.60;;;19.90;99.90;;;;;;4177781;28;20594;-65
2023/09/17 07:58:04;;;;;;;4.43;4.03;;;19.90;99.90;;;;;;4178193;28;20086;-61
2023/09/17 08:00:06;;;;;;;5.60;4.38;;;20.00;99.90;;;;;;4177262;28;20575;-62
2023/09/17 08:02:07;;;;;;;9.57;5.10;;;20.00;99.90;;;;;;4177634;28;20098;-62
2023/09/17 08:04:09;;;;;;;6.40;4.90;;;19.90;99.90;;;;;;4177800;28;20493;-63
2023/09/17 08:06:12;;;;;;;6.50;5.88;;;19.90;99.90;;;;;;4177086;28;20091;-65
2023/09/17 08:08:14;;;;;;;7.00;5.53;;;20.10;99.90;;;;;;4178693;28;20134;-62
2023/09/17 08:10:15;;;;;;;7.97;6.68;;;20.10;99.90;;;;;;4176661;28;20052;-62
2023/09/17 08:12:16;;;;;;;6.50;5.50;;;20.20;99.90;;;;;;4178315;28;20078;-64
2023/09/17 08:14:17;;;;;;;6.88;6.15;;;20.20;99.90;;;;;;4176995;28;20486;-62
2023/09/17 08:16:19;;;;;;;6.45;4.75;;;20.20;99.90;;;;;;4178303;28;20135;-62
2023/09/17 08:18:22;;;;;;;6.93;5.10;;;20.10;99.90;;;;;;4176990;28;20496;-63
2023/09/17 08:20:24;;;;;;;6.78;4.82;;;20.10;99.90;;;;;;4178719;28;20546;-62
2023/09/17 08:22:27;;;;;;;6.47;4.45;;;20.10;99.90;;;;;;4176477;28;20037;-60
2023/09/17 08:24:28;;;;;;;5.78;4.80;;;20.10;99.90;;;;;;4178611;28;20620;-61
2023/09/17 08:26:30;;;;;;;7.78;4.50;;;20.10;99.90;;;;;;4177023;28;20025;-57
2023/09/17 08:28:31;;;;;;;7.82;5.55;;;20.20;99.90;;;;;;4177422;28;20067;-61
2023/09/17 08:30:32;;;;;;;6.25;5.03;;;20.20;99.90;;;;;;4177209;28;20095;-59
2023/09/17 08:32:33;;;;;;;6.85;5.32;;;20.10;99.90;;;;;;4177574;28;20045;-60
2023/09/17 08:34:35;;;;;;;10.20;5.05;;;20.20;99.90;;;;;;4177642;28;20098;-57
2023/09/17 08:36:37;;;;;;;9.93;5.50;;;20.10;99.90;;;;;;4176880;28;20087;-63
2023/09/17 08:38:38;;;;;;;9.57;5.82;;;20.20;99.90;;;;;;4179105;28;20511;-60
2023/09/17 08:40:40;;;;;;;6.45;4.93;;;20.20;99.90;;;;;;4177128;28;20362;-59
2023/09/17 08:42:42;;;;;;;8.93;5.35;;;20.20;99.90;;;;;;4177918;28;20083;-61
2023/09/17 08:44:45;;;;;;;9.02;5.20;;;20.30;99.90;;;;;;4176503;28;20036;-61
2023/09/17 08:46:47;;;;;;;7.93;5.07;;;20.30;99.90;;;;;;4177884;28;20037;-61
2023/09/17 08:48:49;;;;;;;5.30;4.63;;;20.30;99.90;;;;;;4177299;28;20534;-61
2023/09/17 08:50:53;;;;;;;7.30;5.38;;;20.30;99.90;;;;;;4177773;28;20040;-60
2023/09/17 08:52:56;;;;;;;5.80;4.70;;;20.20;99.90;;;;;;4177424;28;20033;-61
2023/09/17 08:54:58;;;;;;;5.13;4.40;;;20.30;99.90;;;;;;4177855;28;20041;-59
2023/09/17 08:57:03;;;;;;;7.80;4.78;;;20.30;99.90;;;;;;4175766;28;20045;-61
2023/09/17 08:59:10;;;;;;;6.63;4.95;;;20.20;99.90;;;;;;4177406;28;20048;-59
2023/09/17 09:01:15;;;;;;;5.75;4.70;;;20.30;99.90;;;;;;4176595;28;20094;-61
2023/09/17 09:03:20;;;;;;;7.28;5.90;;;20.30;99.90;;;;;;4177838;28;20036;-61
2023/09/17 09:05:25;;;;;;;7.55;5.75;;;20.40;99.90;;;;;;4176627;28;20079;-63
2023/09/17 09:07:28;;;;;;;7.45;5.75;;;20.50;99.90;;;;;;4176944;28;20037;-60
2023/09/17 09:09:30;;;;;;;9.35;5.55;;;20.60;99.90;;;;;;4176982;28;20091;-61
2023/09/17 09:11:36;;;;;;;5.40;4.35;;;20.70;99.90;;;;;;4176073;28;20029;-61
2023/09/17 09:13:38;;;;;;;7.22;4.63;;;20.80;99.90;;;;;;4176510;28;20079;-60
2023/09/17 09:15:40;;;;;;;6.20;4.80;;;21.00;99.90;;;;;;4176452;28;20095;-61
2023/09/17 09:17:42;;;;;;;5.70;4.00;;;21.00;99.90;;;;;;4176956;28;20045;-58
2023/09/17 09:19:43;;;;;;;4.85;4.13;;;21.10;99.90;;;;;;4176472;28;20029;-62
2023/09/17 09:21:45;;;;;;;5.80;4.18;;;21.10;99.90;;;;;;4177183;28;20048;-61
2023/09/17 09:23:47;;;;;;;6.70;4.38;;;21.10;99.90;;;;;;4158111;28;21225;-61
2023/09/17 09:25:48;;;;;;;5.72;4.25;;;21.10;99.90;;;;;;4176703;28;20037;-61
2023/09/17 09:27:49;;;;;;;8.23;5.18;;;21.20;99.90;;;;;;4175512;28;20029;-62
2023/09/17 09:29:51;;;;;;;6.20;3.58;;;21.30;99.90;;;;;;4176973;28;20072;-62
2023/09/17 09:31:52;;;;;;;4.75;3.67;;;21.30;99.90;;;;;;4175978;28;20144;-63
2023/09/17 09:33:54;;;;;;;3.92;3.53;;;21.40;99.90;;;;;;4176740;28;20041;-61
2023/09/17 09:35:56;;;;;;;4.22;3.85;;;21.40;99.90;;;;;;4175751;28;20075;-61
2023/09/17 09:37:57;;;;;;;6.85;4.35;;;21.50;99.90;;;;;;4177033;28;20547;-61
2023/09/17 09:39:59;;;;;;;6.18;4.55;;;21.50;99.90;;;;;;4176482;28;20036;-62
2023/09/17 09:42:00;;;;;;;7.03;3.55;;;21.50;99.90;;;;;;4175770;28;20143;-60
2023/09/17 09:44:01;;;;;;;3.85;3.40;;;21.60;99.90;;;;;;4176846;28;20453;-58
2023/09/17 09:46:04;;;;;;;4.18;3.78;;;21.60;99.90;;;;;;4176731;28;20091;-61
2023/09/17 09:48:13;;;;;;;4.93;3.78;;;21.50;99.90;;;;;;4176199;28;20060;-61
2023/09/17 09:50:21;;;;;;;3.90;3.60;;;21.40;99.90;;;;;;4175695;28;20151;-60
2023/09/17 09:52:24;;;;;;;4.13;3.40;;;21.40;99.90;;;;;;4177256;28;20029;-60
2023/09/17 09:54:25;;;;;;;5.30;3.90;;;21.50;99.90;;;;;;4175696;28;20033;-60
2023/09/17 09:56:28;;;;;;;5.32;3.90;;;21.60;99.90;;;;;;4176270;28;20497;-59
2023/09/17 09:58:29;;;;;;;7.80;4.07;;;21.60;99.90;;;;;;4176288;28;20047;-60
2023/09/17 10:00:32;;;;;;;8.63;4.07;;;21.50;99.90;;;;;;4176494;28;20087;-58
2023/09/17 10:02:33;;;;;;;4.00;3.47;;;21.40;99.90;;;;;;4175622;28;20029;-57
2023/09/17 10:04:37;;;;;;;4.85;3.38;;;21.40;99.90;;;;;;4176521;28;20040;-56
2023/09/17 10:06:40;;;;;;;4.10;3.60;;;21.30;99.90;;;;;;4175116;28;20091;-59
2023/09/17 10:08:42;;;;;;;4.55;3.53;;;21.40;99.90;;;;;;4177083;28;20041;-59
2023/09/17 10:10:43;;;;;;;5.43;4.03;;;21.40;99.90;;;;;;4175789;28;20083;-59
2023/09/17 10:12:44;;;;;;;6.53;3.90;;;21.50;99.90;;;;;;4177283;28;20036;-58
2023/09/17 10:14:47;;;;;;;6.03;3.75;;;21.60;99.90;;;;;;4175575;28;20041;-58
2023/09/17 10:16:49;;;;;;;3.42;3.08;;;21.70;99.90;;;;;;4176284;28;20037;-61
2023/09/17 10:18:52;;;;;;;4.38;3.38;;;21.80;99.90;;;;;;4175430;28;20040;-55
2023/09/17 10:20:54;;;;;;;3.30;3.00;;;21.70;99.90;;;;;;4158416;28;20099;-65
2023/09/17 10:22:58;;;;;;;4.20;3.45;;;21.70;99.90;;;;;;4175609;28;20472;-59
2023/09/17 10:24:59;;;;;;;4.97;3.80;;;21.70;99.90;;;;;;4178274;28;20106;-62
2023/09/17 10:27:01;;;;;;;4.82;3.92;;;21.70;99.90;;;;;;4179612;28;20443;-58
2023/09/17 10:29:03;;;;;;;4.53;2.88;;;21.60;99.90;;;;;;4178807;28;20045;-59
2023/09/17 10:31:07;;;;;;;3.72;3.25;;;21.60;99.90;;;;;;4179836;28;20056;-63
2023/09/17 10:33:10;;;;;;;4.40;3.40;;;21.60;99.90;;;;;;4178397;28;20079;-63
2023/09/17 10:35:11;;;;;;;5.28;3.38;;;21.60;99.90;;;;;;4179435;28;20164;-60